createdAt,value
2019-03-19T00:00:23.846Z,96821.91
2019-03-19T00:02:50.450Z,96815.09
2019-03-19T00:05:17.139Z,96819.23
2019-03-19T00:07:43.736Z,96819.70
2019-03-19T00:10:13.228Z,96823.80
2019-03-19T00:12:39.831Z,96827.27
2019-03-19T00:15:06.492Z,96820.27
2019-03-19T00:17:33.200Z,96826.56
2019-03-19T00:19:59.788Z,96820.72
2019-03-19T00:22:26.488Z,96829.95
2019-03-19T00:24:53.190Z,96825.30
2019-03-19T00:27:19.803Z,96826.27
2019-03-19T00:29:46.408Z,96824.59
2019-03-19T00:32:12.995Z,96824.23
2019-03-19T00:34:39.618Z,96825.21
2019-03-19T00:37:06.233Z,96831.50
2019-03-19T00:39:32.961Z,96828.30
2019-03-19T00:41:59.656Z,96829.13
2019-03-19T00:44:26.326Z,96834.59
2019-03-19T00:46:52.942Z,96827.77
2019-03-19T00:49:19.533Z,96824.94
2019-03-19T00:51:46.158Z,96834.23
2019-03-19T00:54:12.759Z,96836.56
2019-03-19T00:56:39.482Z,96835.74
2019-03-19T00:59:06.173Z,96833.59
2019-03-19T01:01:32.803Z,96835.74
2019-03-19T01:03:59.389Z,96831.26
2019-03-19T01:06:26.083Z,96831.08
2019-03-19T01:08:52.695Z,96825.59
2019-03-19T01:11:19.311Z,96826.73
2019-03-19T01:13:45.916Z,96825.41
2019-03-19T01:16:12.589Z,96824.08
2019-03-19T01:18:39.202Z,96824.41
2019-03-19T01:21:05.777Z,96825.23
2019-03-19T01:23:32.390Z,96822.58
2019-03-19T01:25:59.077Z,96823.73
2019-03-19T01:28:25.717Z,96823.73
2019-03-19T01:30:52.306Z,96824.59
2019-03-19T01:33:18.946Z,96814.31
2019-03-19T01:35:45.652Z,96819.45
2019-03-19T01:38:12.357Z,96812.81
2019-03-19T01:40:39.053Z,96816.80
2019-03-19T01:43:05.686Z,96816.83
2019-03-19T01:45:32.299Z,96818.83
2019-03-19T01:47:58.998Z,96814.41
2019-03-19T01:50:25.626Z,96817.23
2019-03-19T01:52:52.214Z,96810.10
2019-03-19T01:55:18.846Z,96822.05
2019-03-19T01:57:45.439Z,96827.36
2019-03-19T02:00:12.393Z,96818.24
2019-03-19T02:02:38.984Z,96818.75
2019-03-19T02:05:05.620Z,96821.58
2019-03-19T02:07:32.210Z,96823.26
2019-03-19T02:09:58.833Z,96820.63
2019-03-19T02:12:25.540Z,96826.62
2019-03-19T02:14:52.144Z,96826.62
2019-03-19T02:17:18.744Z,96826.30
2019-03-19T02:19:45.337Z,96825.64
2019-03-19T02:22:11.928Z,96827.69
2019-03-19T02:24:38.526Z,96826.38
2019-03-19T02:27:05.112Z,96822.58
2019-03-19T02:29:31.714Z,96825.41
2019-03-19T02:31:58.314Z,96817.97
2019-03-19T02:34:24.954Z,96822.80
2019-03-19T02:36:51.641Z,96821.20
2019-03-19T02:39:18.245Z,96825.21
2019-03-19T02:41:44.870Z,96825.08
2019-03-19T02:44:11.459Z,96825.48
2019-03-19T02:46:38.058Z,96826.84
2019-03-19T02:49:04.659Z,96826.09
2019-03-19T02:51:31.288Z,96827.78
2019-03-19T02:53:57.922Z,96828.97
2019-03-19T02:56:32.443Z,96834.44
2019-03-19T02:58:53.131Z,96831.79
2019-03-19T03:01:19.708Z,96833.77
2019-03-19T03:03:46.322Z,96835.58
2019-03-19T03:06:12.940Z,96829.61
2019-03-19T03:08:39.642Z,96831.76
2019-03-19T03:11:06.243Z,96836.89
2019-03-19T03:13:32.857Z,96838.55
2019-03-19T03:15:59.469Z,96842.68
2019-03-19T03:18:26.231Z,96841.35
2019-03-19T03:20:52.938Z,96839.53
2019-03-19T03:23:19.548Z,96840.69
2019-03-19T03:25:46.242Z,96846.48
2019-03-19T03:28:12.930Z,96845.18
2019-03-19T03:30:39.634Z,96853.98
2019-03-19T03:33:06.357Z,96860.63
2019-03-19T03:35:33.055Z,96863.62
2019-03-19T03:37:59.885Z,96862.01
2019-03-19T03:40:26.500Z,96870.30
2019-03-19T03:42:53.121Z,96858.89
2019-03-19T03:45:19.821Z,96859.12
2019-03-19T03:47:46.524Z,96862.77
2019-03-19T03:50:13.352Z,96860.13
2019-03-19T03:52:40.057Z,96863.95
2019-03-19T03:55:11.860Z,96865.27
2019-03-19T03:57:38.719Z,96862.10
2019-03-19T04:00:06.878Z,96867.07
2019-03-19T04:02:33.577Z,96869.06
2019-03-19T04:05:00.406Z,96870.88
2019-03-19T04:07:27.077Z,96863.94
2019-03-19T04:09:53.793Z,96862.95
2019-03-19T04:12:20.479Z,96868.42
2019-03-19T04:14:47.148Z,96865.81
2019-03-19T04:17:13.872Z,96868.96
2019-03-19T04:19:40.457Z,96865.66
2019-03-19T04:22:07.053Z,96869.00
2019-03-19T04:24:33.750Z,96881.77
2019-03-19T04:27:00.345Z,96886.06
2019-03-19T04:29:26.966Z,96886.06
2019-03-19T04:31:53.556Z,96884.75
2019-03-19T04:34:20.179Z,96887.39
2019-03-19T04:36:46.830Z,96893.52
2019-03-19T04:39:13.501Z,96893.05
2019-03-19T04:41:40.118Z,96883.45
2019-03-19T04:44:06.829Z,96893.22
2019-03-19T04:46:33.550Z,96900.00
2019-03-19T04:49:00.136Z,96901.98
2019-03-19T04:51:26.720Z,96905.63
2019-03-19T04:53:53.328Z,96913.59
2019-03-19T04:56:19.950Z,96917.56
2019-03-19T04:58:46.554Z,96912.27
2019-03-19T05:01:13.258Z,96917.73
2019-03-19T05:03:39.844Z,96919.87
2019-03-19T05:06:06.546Z,96922.52
2019-03-19T05:08:33.149Z,96925.00
2019-03-19T05:10:59.879Z,96930.63
2019-03-19T05:13:26.487Z,96926.16
2019-03-19T05:15:53.069Z,96937.91
2019-03-19T05:18:19.662Z,96939.73
2019-03-19T05:20:46.259Z,96933.09
2019-03-19T05:23:12.889Z,96937.74
2019-03-19T05:25:39.605Z,96939.41
2019-03-19T05:28:06.293Z,96948.02
2019-03-19T05:30:32.893Z,96940.73
2019-03-19T05:32:59.507Z,96938.73
2019-03-19T05:35:26.115Z,96947.34
2019-03-19T05:37:52.838Z,96943.38
2019-03-19T05:40:19.536Z,96941.70
2019-03-19T05:42:46.155Z,96949.33
2019-03-19T05:45:12.783Z,96949.47
2019-03-19T05:47:40.695Z,96956.39
2019-03-19T05:50:08.179Z,96954.39
2019-03-19T05:52:34.873Z,96956.84
2019-03-19T05:55:01.510Z,96956.83
2019-03-19T05:57:28.294Z,96961.09
2019-03-19T05:59:55.019Z,96961.08
2019-03-19T06:02:21.715Z,96958.36
2019-03-19T06:04:48.339Z,96955.78
2019-03-19T06:07:14.944Z,96961.08
2019-03-19T06:09:41.641Z,96962.09
2019-03-19T06:12:08.242Z,96953.26
2019-03-19T06:14:34.857Z,96962.95
2019-03-19T06:17:01.462Z,96962.63
2019-03-19T06:19:28.055Z,96961.25
2019-03-19T06:21:56.696Z,96973.17
2019-03-19T06:24:23.214Z,96974.08
2019-03-19T06:26:49.866Z,96975.68
2019-03-19T06:29:16.536Z,96986.17
2019-03-19T06:31:43.177Z,96984.09
2019-03-19T06:34:09.802Z,96993.20
2019-03-19T06:36:36.596Z,96985.71
2019-03-19T06:39:05.122Z,96986.64
2019-03-19T06:41:31.847Z,96991.85
2019-03-19T06:43:58.492Z,96994.89
2019-03-19T06:46:25.187Z,97002.03
2019-03-19T06:48:58.564Z,97002.08
2019-03-19T06:51:25.365Z,97014.47
2019-03-19T06:53:52.028Z,97014.86
2019-03-19T06:56:18.646Z,97011.75
2019-03-19T06:58:45.350Z,97015.09
2019-03-19T07:01:11.944Z,97013.25
2019-03-19T07:03:38.545Z,97012.16
2019-03-19T07:06:05.168Z,97010.58
2019-03-19T07:08:31.880Z,97015.45
2019-03-19T07:10:58.499Z,97017.33
2019-03-19T07:13:25.101Z,97020.41
2019-03-19T07:15:51.707Z,97017.91
2019-03-19T07:18:18.322Z,97019.73
2019-03-19T07:20:44.984Z,97025.45
2019-03-19T07:23:11.630Z,97030.13
2019-03-19T07:25:38.242Z,97028.37
2019-03-19T07:28:04.953Z,97029.95
2019-03-19T07:30:31.663Z,97021.06
2019-03-19T07:32:58.279Z,97029.48
2019-03-19T07:35:24.891Z,97030.31
2019-03-19T07:37:51.505Z,97037.36
2019-03-19T07:40:18.483Z,97036.55
2019-03-19T07:42:45.139Z,97045.86
2019-03-19T07:45:12.379Z,97034.67
2019-03-19T07:47:39.092Z,97037.27
2019-03-19T07:50:06.464Z,97033.98
2019-03-19T07:52:33.172Z,97042.80
2019-03-19T07:54:59.849Z,97039.50
2019-03-19T07:57:26.473Z,97036.49
2019-03-19T07:59:53.175Z,97036.44
2019-03-19T08:02:19.815Z,97044.63
2019-03-19T08:04:46.425Z,97041.30
2019-03-19T08:07:13.030Z,97044.13
2019-03-19T08:09:39.781Z,97044.74
2019-03-19T08:12:06.509Z,97041.03
2019-03-19T08:14:33.103Z,97041.36
2019-03-19T08:16:59.705Z,97042.90
2019-03-19T08:19:26.352Z,97048.02
2019-03-19T08:21:52.957Z,97054.66
2019-03-19T08:24:19.557Z,97048.02
2019-03-19T08:26:46.156Z,97053.92
2019-03-19T08:29:12.789Z,97048.69
2019-03-19T08:31:39.419Z,97051.24
2019-03-19T08:34:06.143Z,97043.77
2019-03-19T08:36:32.732Z,97048.03
2019-03-19T08:38:59.341Z,97051.22
2019-03-19T08:41:25.955Z,97053.47
2019-03-19T08:43:52.765Z,97048.31
2019-03-19T08:46:19.442Z,97061.98
2019-03-19T08:48:46.068Z,97060.02
2019-03-19T08:51:12.665Z,97063.40
2019-03-19T08:53:39.244Z,97067.52
2019-03-19T08:56:06.014Z,97060.64
2019-03-19T08:58:32.700Z,97062.29
2019-03-19T09:00:59.329Z,97069.92
2019-03-19T09:03:25.946Z,97061.61
2019-03-19T09:05:52.542Z,97066.48
2019-03-19T09:08:19.209Z,97072.56
2019-03-19T09:10:45.814Z,97069.28
2019-03-19T09:13:12.408Z,97072.80
2019-03-19T09:15:39.026Z,97079.38
2019-03-19T09:18:05.712Z,97071.88
2019-03-19T09:20:32.440Z,97071.05
2019-03-19T09:22:59.114Z,97080.63
2019-03-19T09:25:25.725Z,97081.15
2019-03-19T09:27:52.415Z,97077.67
2019-03-19T09:30:19.172Z,97077.88
2019-03-19T09:32:45.821Z,97076.11
2019-03-19T09:35:12.420Z,97082.71
2019-03-19T09:37:44.405Z,97080.24
2019-03-19T09:40:09.076Z,97077.44
2019-03-19T09:42:36.036Z,97086.83
2019-03-19T09:45:02.642Z,97080.75
2019-03-19T09:47:29.230Z,97073.22
2019-03-19T09:49:55.839Z,97078.91
2019-03-19T09:52:22.540Z,97075.40
2019-03-19T09:54:49.168Z,97085.18
2019-03-19T09:57:15.904Z,97080.64
2019-03-19T09:59:44.493Z,97079.93
2019-03-19T10:02:11.092Z,97077.55
2019-03-19T10:04:37.795Z,97088.25
2019-03-19T10:07:06.317Z,97088.66
2019-03-19T10:09:32.929Z,97093.34
2019-03-19T10:11:59.530Z,97092.64
2019-03-19T10:14:26.219Z,97089.50
2019-03-19T10:16:55.587Z,97088.25
2019-03-19T10:19:22.175Z,97096.44
2019-03-19T10:21:48.797Z,97084.72
2019-03-19T10:24:15.391Z,97094.70
2019-03-19T10:26:42.026Z,97090.27
2019-03-19T10:29:08.705Z,97088.33
2019-03-19T10:31:35.307Z,97091.23
2019-03-19T10:34:01.905Z,97088.91
2019-03-19T10:36:28.529Z,97089.98
2019-03-19T10:38:55.155Z,97083.59
2019-03-19T10:41:21.875Z,97089.19
2019-03-19T10:43:48.473Z,97088.37
2019-03-19T10:46:15.073Z,97078.38
2019-03-19T10:48:41.674Z,97079.14
2019-03-19T10:51:08.277Z,97081.52
2019-03-19T10:53:34.879Z,97070.42
2019-03-19T10:56:01.476Z,97074.42
2019-03-19T10:58:28.085Z,97075.77
2019-03-19T11:00:54.707Z,97070.48
2019-03-19T11:03:21.409Z,97068.80
2019-03-19T11:05:48.008Z,97066.41
2019-03-19T11:08:14.618Z,97084.32
2019-03-19T11:10:41.222Z,97084.98
2019-03-19T11:13:07.864Z,97081.16
2019-03-19T11:15:34.551Z,97082.73
2019-03-19T11:18:01.155Z,97081.39
2019-03-19T11:20:27.773Z,97080.73
2019-03-19T11:22:54.452Z,97080.91
2019-03-19T11:25:21.064Z,97078.48
2019-03-19T11:27:47.766Z,97079.34
2019-03-19T11:30:15.451Z,97075.70
2019-03-19T11:32:42.134Z,97078.61
2019-03-19T11:35:08.744Z,97082.25
2019-03-19T11:37:35.347Z,97083.31
2019-03-19T11:40:02.054Z,97073.38
2019-03-19T11:42:28.695Z,97076.31
2019-03-19T11:44:55.284Z,97066.78
2019-03-19T11:47:21.924Z,97069.11
2019-03-19T11:49:48.516Z,97077.48
2019-03-19T11:52:15.119Z,97080.85
2019-03-19T11:54:41.710Z,97085.39
2019-03-19T11:57:08.417Z,97082.61
2019-03-19T11:59:35.019Z,97081.25
2019-03-19T12:02:01.623Z,97083.72
2019-03-19T12:04:28.223Z,97085.25
2019-03-19T12:06:54.878Z,97082.33
2019-03-19T12:09:21.540Z,97084.19
2019-03-19T12:11:48.178Z,97083.05
2019-03-19T12:14:14.882Z,97075.64
2019-03-19T12:16:41.589Z,97077.59
2019-03-19T12:19:08.197Z,97085.56
2019-03-19T12:21:34.887Z,97077.55
2019-03-19T12:24:01.479Z,97075.91
2019-03-19T12:26:28.073Z,97071.38
2019-03-19T12:28:54.671Z,97069.92
2019-03-19T12:31:21.280Z,97068.19
2019-03-19T12:33:47.961Z,97057.80
2019-03-19T12:36:14.551Z,97063.03
2019-03-19T12:38:41.157Z,97063.66
2019-03-19T12:41:07.773Z,97065.30
2019-03-19T12:43:34.513Z,97059.13
2019-03-19T12:46:01.142Z,97065.20
2019-03-19T12:48:27.848Z,97066.41
2019-03-19T12:50:54.562Z,97062.50
2019-03-19T12:53:21.259Z,97062.58
2019-03-19T12:55:47.927Z,97053.40
2019-03-19T12:58:27.765Z,97049.25
2019-03-19T13:00:53.425Z,97046.80
2019-03-19T13:03:20.145Z,97037.37
2019-03-19T13:05:46.753Z,97033.44
2019-03-19T13:08:13.374Z,97040.09
2019-03-19T13:10:40.107Z,97038.48
2019-03-19T13:13:06.829Z,97041.39
2019-03-19T13:15:33.569Z,97040.95
2019-03-19T13:18:00.191Z,97039.52
2019-03-19T13:20:26.934Z,97046.03
2019-03-19T13:22:53.565Z,97048.73
2019-03-19T13:25:20.318Z,97046.49
2019-03-19T13:27:46.933Z,97049.34
2019-03-19T13:30:14.745Z,97058.63
2019-03-19T13:32:41.374Z,97054.84
2019-03-19T13:35:08.068Z,97057.44
2019-03-19T13:37:34.680Z,97055.84
2019-03-19T13:40:01.306Z,97052.04
2019-03-19T13:42:27.914Z,97046.88
2019-03-19T13:44:54.626Z,97047.80
2019-03-19T13:47:21.254Z,97042.23
2019-03-19T13:49:47.906Z,97037.74
2019-03-19T13:52:14.622Z,97046.20
2019-03-19T13:54:41.335Z,97043.87
2019-03-19T13:57:07.992Z,97043.51
2019-03-19T13:59:36.066Z,97052.17
2019-03-19T14:02:09.258Z,97066.70
2019-03-19T14:04:35.889Z,97061.38
2019-03-19T14:09:41.376Z,97064.28
2019-03-19T14:12:08.030Z,97068.33
2019-03-19T14:14:34.733Z,97068.34
2019-03-19T14:17:01.473Z,97065.64
2019-03-19T14:19:28.196Z,97062.20
2019-03-19T14:21:54.876Z,97071.61
2019-03-19T14:24:21.533Z,97068.66
2019-03-19T14:26:50.396Z,97077.66
2019-03-19T14:29:16.770Z,97074.17
2019-03-19T14:31:43.487Z,97077.14
2019-03-19T14:34:10.193Z,97080.95
2019-03-19T14:36:36.927Z,97084.57
2019-03-19T14:39:06.033Z,97085.38
2019-03-19T14:41:32.664Z,97082.59
2019-03-19T14:46:58.696Z,97089.70
2019-03-19T14:49:25.431Z,97097.76
2019-03-19T14:51:52.175Z,97094.66
2019-03-19T14:54:18.895Z,97097.65
2019-03-19T14:56:45.530Z,97098.45
2019-03-19T14:59:12.150Z,97102.38
2019-03-19T15:01:38.927Z,97101.98
2019-03-19T15:04:05.624Z,97098.47
2019-03-19T15:06:32.376Z,97098.67
2019-03-19T15:08:59.109Z,97096.41
2019-03-19T15:11:25.819Z,97096.41
2019-03-19T15:13:52.481Z,97098.05
2019-03-19T15:16:19.191Z,97103.00
2019-03-19T15:18:45.881Z,97107.24
2019-03-19T15:21:12.471Z,97114.13
2019-03-19T15:23:39.085Z,97118.14
2019-03-19T15:26:05.701Z,97113.11
2019-03-19T15:28:32.312Z,97117.95
2019-03-19T15:30:58.906Z,97118.14
2019-03-19T15:33:25.517Z,97115.78
2019-03-19T15:35:52.123Z,97110.95
2019-03-19T15:38:18.845Z,97117.52
2019-03-19T15:40:45.745Z,97121.94
2019-03-19T15:43:12.475Z,97122.89
2019-03-19T15:45:39.076Z,97125.03
2019-03-19T15:48:05.678Z,97124.89
2019-03-19T15:50:32.280Z,97125.69
2019-03-19T15:52:58.901Z,97124.23
2019-03-19T15:55:25.497Z,97130.93
2019-03-19T15:57:52.076Z,97131.95
2019-03-19T16:00:18.697Z,97141.91
2019-03-19T16:02:45.325Z,97144.79
2019-03-19T16:05:11.922Z,97147.86
2019-03-19T16:07:38.542Z,97143.53
2019-03-19T16:10:05.202Z,97147.83
2019-03-19T16:12:31.784Z,97153.88
2019-03-19T16:14:58.391Z,97164.92
2019-03-19T16:17:24.996Z,97163.45
2019-03-19T16:19:51.613Z,97169.97
2019-03-19T16:22:18.219Z,97171.59
2019-03-19T16:24:44.952Z,97173.20
2019-03-19T16:27:11.654Z,97172.45
2019-03-19T16:29:38.542Z,97177.28
2019-03-19T16:32:05.263Z,97183.63
2019-03-19T16:34:31.854Z,97181.10
2019-03-19T16:36:58.458Z,97186.03
2019-03-19T16:39:25.074Z,97183.14
2019-03-19T16:41:51.698Z,97191.02
2019-03-19T16:44:18.386Z,97193.43
2019-03-19T16:46:45.108Z,97201.34
2019-03-19T16:49:11.708Z,97199.56
2019-03-19T16:51:38.346Z,97202.59
2019-03-19T16:54:04.943Z,97205.80
2019-03-19T16:56:31.622Z,97211.15
2019-03-19T16:58:58.260Z,97214.00
2019-03-19T17:01:24.884Z,97217.99
2019-03-19T17:03:51.599Z,97222.33
2019-03-19T17:06:18.278Z,97226.95
2019-03-19T17:08:44.880Z,97230.41
2019-03-19T17:11:11.518Z,97229.50
2019-03-19T17:13:38.241Z,97233.41
2019-03-19T17:16:04.844Z,97238.70
2019-03-19T17:18:31.445Z,97240.41
2019-03-19T17:20:58.042Z,97244.96
2019-03-19T17:23:24.667Z,97249.01
2019-03-19T17:25:51.261Z,97258.42
2019-03-19T17:28:22.462Z,97261.83
2019-03-19T17:30:46.403Z,97261.05
2019-03-19T17:33:13.094Z,97265.30
2019-03-19T17:35:39.701Z,97267.00
2019-03-19T17:38:06.309Z,97276.20
2019-03-19T17:40:40.955Z,97279.23
2019-03-19T17:43:07.821Z,97277.75
2019-03-19T17:45:34.502Z,97280.30
2019-03-19T17:48:01.227Z,97284.80
2019-03-19T17:50:27.956Z,97291.34
2019-03-19T17:52:54.666Z,97295.84
2019-03-19T17:55:21.451Z,97300.93
2019-03-19T17:57:48.204Z,97300.54
2019-03-19T18:00:18.010Z,97300.98
2019-03-19T18:02:44.711Z,97299.64
2019-03-19T18:05:11.343Z,97306.95
2019-03-19T18:07:38.034Z,97308.30
2019-03-19T18:10:04.880Z,97314.62
2019-03-19T18:12:31.605Z,97311.72
2019-03-19T18:14:58.302Z,97319.16
2019-03-19T18:17:25.027Z,97323.19
2019-03-19T18:19:51.649Z,97321.58
2019-03-19T18:22:18.356Z,97331.67
2019-03-19T18:24:44.950Z,97333.41
2019-03-19T18:27:11.680Z,97329.47
2019-03-19T18:29:38.394Z,97339.20
2019-03-19T18:32:05.280Z,97338.73
2019-03-19T18:34:31.921Z,97350.26
2019-03-19T18:36:58.622Z,97347.63
2019-03-19T18:39:25.350Z,97349.64
2019-03-19T18:41:52.024Z,97355.30
2019-03-19T18:44:18.644Z,97359.44
2019-03-19T18:46:45.354Z,97358.88
2019-03-19T18:49:12.080Z,97363.25
2019-03-19T18:51:38.867Z,97363.69
2019-03-19T18:54:05.538Z,97367.11
2019-03-19T18:56:32.171Z,97369.27
2019-03-19T18:58:58.816Z,97371.36
2019-03-19T19:01:25.587Z,97371.28
2019-03-19T19:03:52.359Z,97375.20
2019-03-19T19:06:19.077Z,97377.42
2019-03-19T19:08:45.779Z,97378.37
2019-03-19T19:11:12.513Z,97380.77
2019-03-19T19:13:39.194Z,97386.98
2019-03-19T19:16:05.835Z,97389.38
2019-03-19T19:18:32.471Z,97390.41
2019-03-19T19:20:59.117Z,97385.27
2019-03-19T19:23:25.844Z,97397.17
2019-03-19T19:25:52.498Z,97403.02
2019-03-19T19:28:19.248Z,97406.86
2019-03-19T19:30:45.885Z,97410.70
2019-03-19T19:33:12.569Z,97411.92
2019-03-19T19:35:39.316Z,97415.47
2019-03-19T19:38:06.027Z,97409.83
2019-03-19T19:40:32.698Z,97416.03
2019-03-19T19:42:59.323Z,97417.20
2019-03-19T19:45:26.317Z,97413.55
2019-03-19T19:47:53.046Z,97414.56
2019-03-19T19:50:19.675Z,97423.55
2019-03-19T19:52:46.314Z,97417.23
2019-03-19T19:55:52.419Z,97420.73
2019-03-19T19:58:19.099Z,97417.63
2019-03-19T20:00:45.733Z,97421.64
2019-03-19T20:03:12.817Z,97425.69
2019-03-19T20:05:39.595Z,97430.85
2019-03-19T20:08:06.511Z,97425.70
2019-03-19T20:10:33.223Z,97431.89
2019-03-19T20:12:59.839Z,97430.58
2019-03-19T20:15:26.465Z,97438.55
2019-03-19T20:17:53.087Z,97427.78
2019-03-19T20:20:19.783Z,97428.11
2019-03-19T20:22:46.526Z,97434.77
2019-03-19T20:25:14.408Z,97435.77
2019-03-19T20:27:41.107Z,97438.75
2019-03-19T20:30:09.552Z,97441.41
2019-03-19T20:32:36.187Z,97442.75
2019-03-19T20:35:03.310Z,97443.91
2019-03-19T20:37:30.037Z,97440.75
2019-03-19T20:39:56.656Z,97445.73
2019-03-19T20:42:23.281Z,97443.08
2019-03-19T20:44:49.900Z,97450.56
2019-03-19T20:47:16.593Z,97447.40
2019-03-19T20:49:47.624Z,97450.72
2019-03-19T20:52:11.758Z,97455.05
2019-03-19T20:54:38.477Z,97458.17
2019-03-19T20:57:05.087Z,97454.19
2019-03-19T20:59:31.716Z,97457.67
2019-03-19T21:01:58.410Z,97461.36
2019-03-19T21:04:25.057Z,97460.20
2019-03-19T21:06:51.755Z,97467.48
2019-03-19T21:09:18.450Z,97467.84
2019-03-19T21:11:45.074Z,97473.83
2019-03-19T21:14:11.814Z,97474.66
2019-03-19T21:16:38.530Z,97473.99
2019-03-19T21:19:05.131Z,97475.46
2019-03-19T21:21:31.761Z,97477.95
2019-03-19T21:23:58.484Z,97482.44
2019-03-19T21:26:25.193Z,97480.78
2019-03-19T21:28:51.957Z,97486.44
2019-03-19T21:31:18.651Z,97484.44
2019-03-19T21:33:51.250Z,97481.28
2019-03-19T21:36:13.858Z,97483.11
2019-03-19T21:38:40.505Z,97486.80
2019-03-19T21:41:07.231Z,97492.78
2019-03-19T21:43:33.949Z,97480.64
2019-03-19T21:46:00.573Z,97479.64
2019-03-19T21:48:27.206Z,97477.98
2019-03-19T21:50:53.923Z,97488.29
2019-03-19T21:53:20.662Z,97485.45
2019-03-19T21:55:47.341Z,97495.43
2019-03-19T21:58:13.975Z,97497.09
2019-03-19T22:00:40.604Z,97499.58
2019-03-19T22:03:07.205Z,97507.75
2019-03-19T22:05:33.810Z,97502.59
2019-03-19T22:08:00.518Z,97507.56
2019-03-19T22:10:27.139Z,97507.23
2019-03-19T22:12:53.832Z,97508.22
2019-03-19T22:15:20.567Z,97511.38
2019-03-19T22:17:47.303Z,97512.70
2019-03-19T22:20:14.223Z,97508.22
2019-03-19T22:22:40.834Z,97514.39
2019-03-19T22:25:08.131Z,97524.17
2019-03-19T22:27:34.807Z,97517.20
2019-03-19T22:30:01.427Z,97514.05
2019-03-19T22:32:28.125Z,97513.21
2019-03-19T22:34:54.848Z,97512.88
2019-03-19T22:37:21.534Z,97519.53
2019-03-19T22:39:48.162Z,97522.20
2019-03-19T22:42:14.783Z,97522.34
2019-03-19T22:44:41.425Z,97520.70
2019-03-19T22:47:08.035Z,97524.50
2019-03-19T22:49:34.641Z,97526.83
2019-03-19T22:52:01.252Z,97528.33
2019-03-19T22:54:27.862Z,97529.50
2019-03-19T22:56:54.500Z,97534.82
2019-03-19T22:59:21.196Z,97532.83
2019-03-19T23:01:47.829Z,97530.16
2019-03-19T23:04:14.431Z,97532.98
2019-03-19T23:06:41.045Z,97537.98
2019-03-19T23:09:08.585Z,97536.48
2019-03-19T23:11:35.232Z,97536.98
2019-03-19T23:14:01.926Z,97540.14
2019-03-19T23:16:28.624Z,97544.95
2019-03-19T23:18:55.246Z,97540.79
2019-03-19T23:21:21.988Z,97541.11
2019-03-19T23:23:48.584Z,97543.97
2019-03-19T23:26:15.194Z,97547.45
2019-03-19T23:28:41.831Z,97546.44
2019-03-19T23:31:08.446Z,97546.76
2019-03-19T23:33:35.050Z,97549.41
2019-03-19T23:36:01.759Z,97549.75
2019-03-19T23:38:28.444Z,97550.09
2019-03-19T23:40:55.068Z,97564.70
2019-03-19T23:43:21.668Z,97565.54
2019-03-19T23:45:48.248Z,97556.72
2019-03-19T23:48:14.863Z,97559.54
2019-03-19T23:50:41.464Z,97567.02
2019-03-19T23:53:08.087Z,97568.68
2019-03-19T23:55:34.815Z,97573.84
2019-03-19T23:58:01.497Z,97579.66
